Superfast Baleares — EBXD — position and weather

sailwx.info

Track history (hours):
 
Tides and Currents Weather Stations Pressure Air Temp Water Temp Dewpoint Dewpoint Depression Visibility Wind Speed Wind Dir Waves Ship Positions

Superfast Baleares

Last reported at 2016-Dec-22 06:06 UTC. Time now 2017-May-25 18:02 UTC.
Position N 36°08' W 005°25'.
Warning: this ship's position is months out of date.

Length 210 m; draft 5.5 m.

Type: Cargo ship. MMSI: 225405000.

Date/timePositionNaut miles runAvg speedWind from/ knotsBaromVisibWave heightAir tempDewpointWater temp
2016-Dec-22 06:06N 36°08' W 005°25'3 5.7
2016-Dec-22 05:33N 36°06' W 005°23'6 5.9
2016-Dec-22 04:34N 36°00' W 005°22'  
2016-Dec-13 23:11N 28°34' W 015°39'913.8
2016-Dec-13 22:33N 28°26' W 015°35'1313.5
2016-Dec-13 21:33N 28°14' W 015°28'7 6.6
2016-Dec-13 20:33N 28°08' W 015°25'1 0.5
2016-Dec-13 19:31N 28°09' W 015°25'0 0.0
2016-Dec-13 18:31N 28°09' W 015°25'0 0.0
2016-Dec-13 17:31N 28°09' W 015°25'0 0.0
2016-Dec-13 16:31N 28°09' W 015°25'0 0.0
2016-Dec-13 15:31N 28°09' W 015°25'0 0.0
2016-Dec-13 14:31N 28°09' W 015°25'0 0.0
2016-Dec-13 13:22N 28°09' W 015°25'0 0.0
2016-Dec-13 12:25N 28°09' W 015°25'0 0.0
2016-Dec-13 11:25N 28°09' W 015°25'0 0.0
2016-Dec-13 10:25N 28°09' W 015°25'0 0.0
2016-Dec-13 09:28N 28°09' W 015°25'0 0.0
2016-Dec-13 08:28N 28°09' W 015°25'0 0.0
2016-Dec-13 07:28N 28°09' W 015°25'0 0.0
2016-Dec-13 06:31N 28°09' W 015°25'0 0.0
2016-Dec-13 05:31N 28°09' W 015°25'0 0.0
2016-Dec-13 04:31N 28°09' W 015°25'0 0.0
2016-Dec-13 03:31N 28°09' W 015°25'0 0.0
2016-Dec-13 02:31N 28°09' W 015°25'0 0.0
2016-Dec-13 01:22N 28°09' W 015°25'0 0.0
2016-Dec-13 00:31N 28°09' W 015°25'0 0.0
2016-Dec-12 23:19N 28°09' W 015°25'0 0.0
2016-Dec-12 22:25N 28°09' W 015°25'0 0.0
2016-Dec-12 21:25N 28°09' W 015°25'0 0.0
2016-Dec-12 20:25N 28°09' W 015°25'0 0.0
2016-Dec-12 19:28N 28°09' W 015°25'0 0.0
2016-Dec-12 18:28N 28°09' W 015°25'0 0.0
2016-Dec-12 17:28N 28°09' W 015°25'0 0.0
2016-Dec-12 16:31N 28°09' W 015°25'0 0.0
2016-Dec-12 15:31N 28°09' W 015°25'0 0.0
2016-Dec-12 14:31N 28°09' W 015°25'0 0.0
2016-Dec-12 13:31N 28°09' W 015°25'0 0.0
2016-Dec-12 12:04N 28°09' W 015°25'0 0.0
2016-Dec-12 11:31N 28°09' W 015°25'0 0.0
2016-Dec-12 10:31N 28°09' W 015°25'0 0.0
2016-Dec-12 09:07N 28°09' W 015°25'1 1.9
2016-Dec-12 08:33N 28°08' W 015°25'1515.0
2016-Dec-12 07:33N 28°17' W 015°38'  
Track history (hours):
 
Tides and Currents Weather Stations Pressure Air Temp Water Temp Dewpoint Dewpoint Depression Visibility Wind Speed Wind Dir Waves Ship Positions

Superfast Baleares

Last reported at 2016-Dec-22 06:06 UTC. Time now 2017-May-25 18:02 UTC.
Position N 36°08' W 005°25'.
Warning: this ship's position is months out of date.

Length 210 m; draft 5.5 m.

Type: Cargo ship. MMSI: 225405000.

Date/timePositionNaut miles runAvg speedWind from/ knotsBaromVisibWave heightAir tempDewpointWater temp
2016-Dec-22 06:06N 36°08' W 005°25'3 5.7
2016-Dec-22 05:33N 36°06' W 005°23'6 5.9
2016-Dec-22 04:34N 36°00' W 005°22'  
2016-Dec-13 23:11N 28°34' W 015°39'913.8
2016-Dec-13 22:33N 28°26' W 015°35'1313.5
2016-Dec-13 21:33N 28°14' W 015°28'7 6.6
2016-Dec-13 20:33N 28°08' W 015°25'1 0.5
2016-Dec-13 19:31N 28°09' W 015°25'0 0.0
2016-Dec-13 18:31N 28°09' W 015°25'0 0.0
2016-Dec-13 17:31N 28°09' W 015°25'0 0.0
2016-Dec-13 16:31N 28°09' W 015°25'0 0.0
2016-Dec-13 15:31N 28°09' W 015°25'0 0.0
2016-Dec-13 14:31N 28°09' W 015°25'0 0.0
2016-Dec-13 13:22N 28°09' W 015°25'0 0.0
2016-Dec-13 12:25N 28°09' W 015°25'0 0.0
2016-Dec-13 11:25N 28°09' W 015°25'0 0.0
2016-Dec-13 10:25N 28°09' W 015°25'0 0.0
2016-Dec-13 09:28N 28°09' W 015°25'0 0.0
2016-Dec-13 08:28N 28°09' W 015°25'0 0.0
2016-Dec-13 07:28N 28°09' W 015°25'0 0.0
2016-Dec-13 06:31N 28°09' W 015°25'0 0.0
2016-Dec-13 05:31N 28°09' W 015°25'0 0.0
2016-Dec-13 04:31N 28°09' W 015°25'0 0.0
2016-Dec-13 03:31N 28°09' W 015°25'0 0.0
2016-Dec-13 02:31N 28°09' W 015°25'0 0.0
2016-Dec-13 01:22N 28°09' W 015°25'0 0.0
2016-Dec-13 00:31N 28°09' W 015°25'0 0.0
2016-Dec-12 23:19N 28°09' W 015°25'0 0.0
2016-Dec-12 22:25N 28°09' W 015°25'0 0.0
2016-Dec-12 21:25N 28°09' W 015°25'0 0.0
2016-Dec-12 20:25N 28°09' W 015°25'0 0.0
2016-Dec-12 19:28N 28°09' W 015°25'0 0.0
2016-Dec-12 18:28N 28°09' W 015°25'0 0.0
2016-Dec-12 17:28N 28°09' W 015°25'0 0.0
2016-Dec-12 16:31N 28°09' W 015°25'0 0.0
2016-Dec-12 15:31N 28°09' W 015°25'0 0.0
2016-Dec-12 14:31N 28°09' W 015°25'0 0.0
2016-Dec-12 13:31N 28°09' W 015°25'0 0.0
2016-Dec-12 12:04N 28°09' W 015°25'0 0.0
2016-Dec-12 11:31N 28°09' W 015°25'0 0.0
2016-Dec-12 10:31N 28°09' W 015°25'0 0.0
2016-Dec-12 09:07N 28°09' W 015°25'1 1.9
2016-Dec-12 08:33N 28°08' W 015°25'1515.0
2016-Dec-12 07:33N 28°17' W 015°38'  

Dump ship's entire track history